sensor_id;sensor_type;location;lat;lon;timestamp;temperature;humidity
28171;DHT22;15458;53.346;-1.688;2022-10-28T00:01:10;14.80;99.90
28171;DHT22;15458;53.346;-1.688;2022-10-28T00:03:38;14.80;99.90
28171;DHT22;15458;53.346;-1.688;2022-10-28T00:06:05;14.80;99.90
28171;DHT22;15458;53.346;-1.688;2022-10-28T00:08:31;14.80;99.90
28171;DHT22;15458;53.346;-1.688;2022-10-28T00:11:08;14.80;99.90
28171;DHT22;15458;53.346;-1.688;2022-10-28T00:13:35;14.80;99.90
28171;DHT22;15458;53.346;-1.688;2022-10-28T00:16:10;14.80;99.90
28171;DHT22;15458;53.346;-1.688;2022-10-28T00:18:36;14.80;99.90
28171;DHT22;15458;53.346;-1.688;2022-10-28T00:21:05;14.90;99.90
28171;DHT22;15458;53.346;-1.688;2022-10-28T00:23:31;14.90;99.90
28171;DHT22;15458;53.346;-1.688;2022-10-28T00:26:11;14.90;99.90
28171;DHT22;15458;53.346;-1.688;2022-10-28T00:28:45;14.90;99.90
28171;DHT22;15458;53.346;-1.688;2022-10-28T00:31:12;15.00;99.90
28171;DHT22;15458;53.346;-1.688;2022-10-28T00:33:38;15.00;99.90
28171;DHT22;15458;53.346;-1.688;2022-10-28T00:38:42;15.10;99.90
28171;DHT22;15458;53.346;-1.688;2022-10-28T00:41:10;15.10;99.90
28171;DHT22;15458;53.346;-1.688;2022-10-28T00:43:40;15.10;99.90
28171;DHT22;15458;53.346;-1.688;2022-10-28T00:48:53;15.20;99.90
28171;DHT22;15458;53.346;-1.688;2022-10-28T00:51:21;15.20;99.90
28171;DHT22;15458;53.346;-1.688;2022-10-28T00:53:49;15.20;99.90
28171;DHT22;15458;53.346;-1.688;2022-10-28T00:56:16;15.20;99.90
28171;DHT22;15458;53.346;-1.688;2022-10-28T00:58:42;15.20;99.90
28171;DHT22;15458;53.346;-1.688;2022-10-28T01:01:09;15.20;99.90
28171;DHT22;15458;53.346;-1.688;2022-10-28T01:03:35;15.20;99.90
28171;DHT22;15458;53.346;-1.688;2022-10-28T01:06:01;15.20;99.90
28171;DHT22;15458;53.346;-1.688;2022-10-28T01:08:27;15.20;99.90
28171;DHT22;15458;53.346;-1.688;2022-10-28T01:14:13;15.20;99.90
28171;DHT22;15458;53.346;-1.688;2022-10-28T01:17:11;15.20;99.90
28171;DHT22;15458;53.346;-1.688;2022-10-28T01:22:40;15.20;99.90
28171;DHT22;15458;53.346;-1.688;2022-10-28T01:28:55;15.20;99.90
28171;DHT22;15458;53.346;-1.688;2022-10-28T01:34:45;15.10;99.90
28171;DHT22;15458;53.346;-1.688;2022-10-28T01:37:13;15.10;99.90
28171;DHT22;15458;53.346;-1.688;2022-10-28T01:39:53;15.10;99.90
28171;DHT22;15458;53.346;-1.688;2022-10-28T01:45:24;15.10;99.90
28171;DHT22;15458;53.346;-1.688;2022-10-28T01:47:53;15.10;99.90
28171;DHT22;15458;53.346;-1.688;2022-10-28T01:50:33;15.10;99.90
28171;DHT22;15458;53.346;-1.688;2022-10-28T01:53:05;15.10;99.90
28171;DHT22;15458;53.346;-1.688;2022-10-28T01:55:37;15.10;99.90
28171;DHT22;15458;53.346;-1.688;2022-10-28T01:58:05;15.00;99.90
28171;DHT22;15458;53.346;-1.688;2022-10-28T02:00:32;15.10;99.90
28171;DHT22;15458;53.346;-1.688;2022-10-28T02:02:58;15.10;99.90
28171;DHT22;15458;53.346;-1.688;2022-10-28T02:05:48;15.10;99.90
28171;DHT22;15458;53.346;-1.688;2022-10-28T02:16:19;15.10;99.90
28171;DHT22;15458;53.346;-1.688;2022-10-28T02:18:58;15.10;99.90
28171;DHT22;15458;53.346;-1.688;2022-10-28T02:21:35;15.10;99.90
28171;DHT22;15458;53.346;-1.688;2022-10-28T02:24:10;15.10;99.90
28171;DHT22;15458;53.346;-1.688;2022-10-28T02:26:46;15.10;99.90
28171;DHT22;15458;53.346;-1.688;2022-10-28T02:29:33;15.10;99.90
28171;DHT22;15458;53.346;-1.688;2022-10-28T02:32:08;15.10;99.90
28171;DHT22;15458;53.346;-1.688;2022-10-28T02:34:41;15.10;99.90
28171;DHT22;15458;53.346;-1.688;2022-10-28T02:37:12;15.10;99.90
28171;DHT22;15458;53.346;-1.688;2022-10-28T02:39:43;15.10;99.90
28171;DHT22;15458;53.346;-1.688;2022-10-28T02:42:18;15.10;99.90
28171;DHT22;15458;53.346;-1.688;2022-10-28T02:44:52;15.00;99.90
28171;DHT22;15458;53.346;-1.688;2022-10-28T02:47:22;15.00;99.90
28171;DHT22;15458;53.346;-1.688;2022-10-28T02:49:54;15.00;99.90
28171;DHT22;15458;53.346;-1.688;2022-10-28T02:52:21;15.00;99.90
28171;DHT22;15458;53.346;-1.688;2022-10-28T02:54:54;15.00;99.90
28171;DHT22;15458;53.346;-1.688;2022-10-28T02:57:32;15.00;99.90
28171;DHT22;15458;53.346;-1.688;2022-10-28T03:00:04;15.00;99.90
28171;DHT22;15458;53.346;-1.688;2022-10-28T03:02:30;15.00;99.90
28171;DHT22;15458;53.346;-1.688;2022-10-28T03:04:56;15.00;99.90
28171;DHT22;15458;53.346;-1.688;2022-10-28T03:07:21;15.00;99.90
28171;DHT22;15458;53.346;-1.688;2022-10-28T03:09:48;14.90;99.90
28171;DHT22;15458;53.346;-1.688;2022-10-28T03:12:14;14.90;99.90
28171;DHT22;15458;53.346;-1.688;2022-10-28T03:14:40;14.90;99.90
28171;DHT22;15458;53.346;-1.688;2022-10-28T03:17:07;14.90;99.90
28171;DHT22;15458;53.346;-1.688;2022-10-28T03:19:32;14.90;99.90
28171;DHT22;15458;53.346;-1.688;2022-10-28T03:21:58;14.90;99.90
28171;DHT22;15458;53.346;-1.688;2022-10-28T03:24:24;14.90;99.90
28171;DHT22;15458;53.346;-1.688;2022-10-28T03:26:50;14.90;99.90
28171;DHT22;15458;53.346;-1.688;2022-10-28T03:29:15;14.90;99.90
28171;DHT22;15458;53.346;-1.688;2022-10-28T03:31:42;15.00;99.90
28171;DHT22;15458;53.346;-1.688;2022-10-28T03:34:08;15.00;99.90
28171;DHT22;15458;53.346;-1.688;2022-10-28T03:36:33;15.00;99.90
28171;DHT22;15458;53.346;-1.688;2022-10-28T03:38:59;15.00;99.90
28171;DHT22;15458;53.346;-1.688;2022-10-28T03:41:24;15.00;99.90
28171;DHT22;15458;53.346;-1.688;2022-10-28T03:43:50;15.00;99.90
28171;DHT22;15458;53.346;-1.688;2022-10-28T03:46:16;15.00;99.90
28171;DHT22;15458;53.346;-1.688;2022-10-28T03:48:41;15.00;99.90
28171;DHT22;15458;53.346;-1.688;2022-10-28T03:51:07;15.00;99.90
28171;DHT22;15458;53.346;-1.688;2022-10-28T03:53:33;15.00;99.90
28171;DHT22;15458;53.346;-1.688;2022-10-28T03:55:59;15.00;99.90
28171;DHT22;15458;53.346;-1.688;2022-10-28T03:58:26;15.00;99.90
28171;DHT22;15458;53.346;-1.688;2022-10-28T04:00:53;15.00;99.90
28171;DHT22;15458;53.346;-1.688;2022-10-28T04:03:20;15.00;99.90
28171;DHT22;15458;53.346;-1.688;2022-10-28T04:05:46;15.00;99.90
28171;DHT22;15458;53.346;-1.688;2022-10-28T04:08:16;15.00;99.90
28171;DHT22;15458;53.346;-1.688;2022-10-28T04:10:43;15.00;99.90
28171;DHT22;15458;53.346;-1.688;2022-10-28T04:13:09;14.90;99.90
28171;DHT22;15458;53.346;-1.688;2022-10-28T04:15:35;14.90;99.90
28171;DHT22;15458;53.346;-1.688;2022-10-28T04:18:01;14.90;99.90
28171;DHT22;15458;53.346;-1.688;2022-10-28T04:20:27;14.80;99.90
28171;DHT22;15458;53.346;-1.688;2022-10-28T04:22:53;14.80;99.90
28171;DHT22;15458;53.346;-1.688;2022-10-28T04:25:23;14.70;99.90
28171;DHT22;15458;53.346;-1.688;2022-10-28T04:27:49;14.70;99.90
28171;DHT22;15458;53.346;-1.688;2022-10-28T04:30:15;14.60;99.90
28171;DHT22;15458;53.346;-1.688;2022-10-28T04:32:41;14.60;99.90
28171;DHT22;15458;53.346;-1.688;2022-10-28T04:35:08;14.60;99.90
28171;DHT22;15458;53.346;-1.688;2022-10-28T04:37:34;14.50;99.90
28171;DHT22;15458;53.346;-1.688;2022-10-28T04:40:00;14.50;99.90
28171;DHT22;15458;53.346;-1.688;2022-10-28T04:42:27;14.40;99.90
28171;DHT22;15458;53.346;-1.688;2022-10-28T04:44:52;14.50;99.90
28171;DHT22;15458;53.346;-1.688;2022-10-28T04:47:18;14.40;99.90
28171;DHT22;15458;53.346;-1.688;2022-10-28T04:49:44;14.40;99.90
28171;DHT22;15458;53.346;-1.688;2022-10-28T04:52:10;14.40;99.90
28171;DHT22;15458;53.346;-1.688;2022-10-28T04:54:35;14.40;99.90
28171;DHT22;15458;53.346;-1.688;2022-10-28T04:57:01;14.40;99.90
28171;DHT22;15458;53.346;-1.688;2022-10-28T04:59:28;14.40;99.90
28171;DHT22;15458;53.346;-1.688;2022-10-28T05:01:54;14.40;99.90
28171;DHT22;15458;53.346;-1.688;2022-10-28T05:04:20;14.50;99.90
28171;DHT22;15458;53.346;-1.688;2022-10-28T05:06:45;14.40;99.90
28171;DHT22;15458;53.346;-1.688;2022-10-28T05:09:11;14.40;99.90
28171;DHT22;15458;53.346;-1.688;2022-10-28T05:11:37;14.40;99.90
28171;DHT22;15458;53.346;-1.688;2022-10-28T05:14:03;14.40;99.90
28171;DHT22;15458;53.346;-1.688;2022-10-28T05:16:29;14.40;99.90
28171;DHT22;15458;53.346;-1.688;2022-10-28T05:18:55;14.40;99.90
28171;DHT22;15458;53.346;-1.688;2022-10-28T05:21:21;14.40;99.90
28171;DHT22;15458;53.346;-1.688;2022-10-28T05:23:47;14.50;99.90
28171;DHT22;15458;53.346;-1.688;2022-10-28T05:26:13;14.40;99.90
28171;DHT22;15458;53.346;-1.688;2022-10-28T05:28:39;14.50;99.90
28171;DHT22;15458;53.346;-1.688;2022-10-28T05:31:05;14.50;99.90
28171;DHT22;15458;53.346;-1.688;2022-10-28T05:33:30;14.50;99.90
28171;DHT22;15458;53.346;-1.688;2022-10-28T05:35:59;14.50;99.90
28171;DHT22;15458;53.346;-1.688;2022-10-28T05:38:25;14.50;99.90
28171;DHT22;15458;53.346;-1.688;2022-10-28T05:40:51;14.40;99.90
28171;DHT22;15458;53.346;-1.688;2022-10-28T05:43:17;14.50;99.90
28171;DHT22;15458;53.346;-1.688;2022-10-28T05:45:42;14.50;99.90
28171;DHT22;15458;53.346;-1.688;2022-10-28T05:48:08;14.50;99.90
28171;DHT22;15458;53.346;-1.688;2022-10-28T05:50:34;14.50;99.90
28171;DHT22;15458;53.346;-1.688;2022-10-28T05:53:00;14.50;99.90
28171;DHT22;15458;53.346;-1.688;2022-10-28T05:55:27;14.50;99.90
28171;DHT22;15458;53.346;-1.688;2022-10-28T05:57:54;14.50;99.90
28171;DHT22;15458;53.346;-1.688;2022-10-28T06:00:24;14.60;99.90
28171;DHT22;15458;53.346;-1.688;2022-10-28T06:02:50;14.60;99.90
28171;DHT22;15458;53.346;-1.688;2022-10-28T06:05:16;14.60;99.90
28171;DHT22;15458;53.346;-1.688;2022-10-28T06:07:42;14.70;99.90
28171;DHT22;15458;53.346;-1.688;2022-10-28T06:10:09;14.70;99.90
28171;DHT22;15458;53.346;-1.688;2022-10-28T06:12:35;14.70;99.90
28171;DHT22;15458;53.346;-1.688;2022-10-28T06:15:01;14.70;99.90
28171;DHT22;15458;53.346;-1.688;2022-10-28T06:17:27;14.70;99.90
28171;DHT22;15458;53.346;-1.688;2022-10-28T06:19:53;14.70;99.90
28171;DHT22;15458;53.346;-1.688;2022-10-28T06:22:19;14.70;99.90
28171;DHT22;15458;53.346;-1.688;2022-10-28T06:24:44;14.70;99.90
28171;DHT22;15458;53.346;-1.688;2022-10-28T06:27:10;14.80;99.90
28171;DHT22;15458;53.346;-1.688;2022-10-28T06:29:36;14.70;99.90
28171;DHT22;15458;53.346;-1.688;2022-10-28T06:32:02;14.70;99.90
28171;DHT22;15458;53.346;-1.688;2022-10-28T06:34:28;14.80;99.90
28171;DHT22;15458;53.346;-1.688;2022-10-28T06:36:53;14.80;99.90
28171;DHT22;15458;53.346;-1.688;2022-10-28T06:39:19;14.80;99.90
28171;DHT22;15458;53.346;-1.688;2022-10-28T06:41:45;14.80;99.90
28171;DHT22;15458;53.346;-1.688;2022-10-28T06:44:10;14.80;99.90
28171;DHT22;15458;53.346;-1.688;2022-10-28T06:46:36;14.80;99.90
28171;DHT22;15458;53.346;-1.688;2022-10-28T06:49:02;14.80;99.90
28171;DHT22;15458;53.346;-1.688;2022-10-28T06:51:29;14.90;99.90
28171;DHT22;15458;53.346;-1.688;2022-10-28T06:53:56;14.90;99.90
28171;DHT22;15458;53.346;-1.688;2022-10-28T06:56:23;14.90;99.90
28171;DHT22;15458;53.346;-1.688;2022-10-28T06:58:53;14.90;99.90
28171;DHT22;15458;53.346;-1.688;2022-10-28T07:01:19;14.90;99.90
28171;DHT22;15458;53.346;-1.688;2022-10-28T07:03:45;15.00;99.90
28171;DHT22;15458;53.346;-1.688;2022-10-28T07:06:11;15.00;99.90
28171;DHT22;15458;53.346;-1.688;2022-10-28T07:08:37;15.00;99.90
28171;DHT22;15458;53.346;-1.688;2022-10-28T07:11:03;15.00;99.90
28171;DHT22;15458;53.346;-1.688;2022-10-28T07:13:28;15.10;99.90
28171;DHT22;15458;53.346;-1.688;2022-10-28T07:15:56;15.20;99.90
28171;DHT22;15458;53.346;-1.688;2022-10-28T07:18:25;15.20;99.90
28171;DHT22;15458;53.346;-1.688;2022-10-28T07:20:51;15.30;99.90
28171;DHT22;15458;53.346;-1.688;2022-10-28T07:23:17;15.30;99.90
28171;DHT22;15458;53.346;-1.688;2022-10-28T07:25:49;15.30;99.90
28171;DHT22;15458;53.346;-1.688;2022-10-28T07:28:15;15.40;99.90
28171;DHT22;15458;53.346;-1.688;2022-10-28T07:30:42;15.40;99.90
28171;DHT22;15458;53.346;-1.688;2022-10-28T07:33:08;15.30;99.90
28171;DHT22;15458;53.346;-1.688;2022-10-28T07:35:34;15.40;99.90
28171;DHT22;15458;53.346;-1.688;2022-10-28T07:37:59;15.40;99.90
28171;DHT22;15458;53.346;-1.688;2022-10-28T07:40:28;15.40;99.90
28171;DHT22;15458;53.346;-1.688;2022-10-28T07:42:53;15.40;99.90
28171;DHT22;15458;53.346;-1.688;2022-10-28T07:45:19;15.30;99.90
28171;DHT22;15458;53.346;-1.688;2022-10-28T07:47:45;15.30;99.90
28171;DHT22;15458;53.346;-1.688;2022-10-28T07:50:11;15.30;99.90
28171;DHT22;15458;53.346;-1.688;2022-10-28T07:52:37;15.30;99.90
28171;DHT22;15458;53.346;-1.688;2022-10-28T07:55:04;15.30;99.90
28171;DHT22;15458;53.346;-1.688;2022-10-28T07:57:40;15.30;99.90
28171;DHT22;15458;53.346;-1.688;2022-10-28T08:00:06;15.30;99.90
28171;DHT22;15458;53.346;-1.688;2022-10-28T08:02:32;15.30;99.90
28171;DHT22;15458;53.346;-1.688;2022-10-28T08:04:58;15.30;99.90
28171;DHT22;15458;53.346;-1.688;2022-10-28T08:07:26;15.30;99.90
28171;DHT22;15458;53.346;-1.688;2022-10-28T08:09:52;15.30;99.90
28171;DHT22;15458;53.346;-1.688;2022-10-28T08:12:20;15.40;99.90
28171;DHT22;15458;53.346;-1.688;2022-10-28T08:14:47;15.30;99.90
28171;DHT22;15458;53.346;-1.688;2022-10-28T08:17:16;15.30;99.90
28171;DHT22;15458;53.346;-1.688;2022-10-28T08:19:59;15.30;99.90
28171;DHT22;15458;53.346;-1.688;2022-10-28T08:22:24;15.30;99.90
28171;DHT22;15458;53.346;-1.688;2022-10-28T08:24:50;15.30;99.90
28171;DHT22;15458;53.346;-1.688;2022-10-28T08:27:16;15.30;99.90
28171;DHT22;15458;53.346;-1.688;2022-10-28T08:29:42;15.30;99.90
28171;DHT22;15458;53.346;-1.688;2022-10-28T08:32:10;15.30;99.90
28171;DHT22;15458;53.346;-1.688;2022-10-28T08:34:36;15.30;99.90
28171;DHT22;15458;53.346;-1.688;2022-10-28T08:37:04;15.30;99.90
28171;DHT22;15458;53.346;-1.688;2022-10-28T08:39:32;15.30;99.90
28171;DHT22;15458;53.346;-1.688;2022-10-28T08:50:26;15.20;99.90
28171;DHT22;15458;53.346;-1.688;2022-10-28T08:53:04;15.20;99.90
28171;DHT22;15458;53.346;-1.688;2022-10-28T08:55:39;15.10;99.90
28171;DHT22;15458;53.346;-1.688;2022-10-28T09:00:39;15.10;99.90
28171;DHT22;15458;53.346;-1.688;2022-10-28T09:05:38;15.00;99.90
28171;DHT22;15458;53.346;-1.688;2022-10-28T09:08:05;15.00;99.90
28171;DHT22;15458;53.346;-1.688;2022-10-28T09:13:18;15.00;99.90
28171;DHT22;15458;53.346;-1.688;2022-10-28T09:19:03;15.00;99.90
28171;DHT22;15458;53.346;-1.688;2022-10-28T09:21:39;15.00;99.90
28171;DHT22;15458;53.346;-1.688;2022-10-28T09:35:35;15.40;99.90
28171;DHT22;15458;53.346;-1.688;2022-10-28T09:38:19;15.50;99.90
28171;DHT22;15458;53.346;-1.688;2022-10-28T09:41:02;15.50;99.90
28171;DHT22;15458;53.346;-1.688;2022-10-28T09:43:33;15.60;99.90
28171;DHT22;15458;53.346;-1.688;2022-10-28T09:46:13;15.80;99.90
28171;DHT22;15458;53.346;-1.688;2022-10-28T09:48:47;16.00;99.90
28171;DHT22;15458;53.346;-1.688;2022-10-28T09:53:55;16.40;99.90
28171;DHT22;15458;53.346;-1.688;2022-10-28T09:56:21;16.70;99.90
28171;DHT22;15458;53.346;-1.688;2022-10-28T09:58:47;16.90;99.90
28171;DHT22;15458;53.346;-1.688;2022-10-28T10:01:14;17.10;99.90
28171;DHT22;15458;53.346;-1.688;2022-10-28T10:03:41;17.20;99.90
28171;DHT22;15458;53.346;-1.688;2022-10-28T10:06:31;17.40;99.90
28171;DHT22;15458;53.346;-1.688;2022-10-28T10:08:58;17.50;99.90
28171;DHT22;15458;53.346;-1.688;2022-10-28T10:11:44;17.70;99.90
28171;DHT22;15458;53.346;-1.688;2022-10-28T10:14:34;17.90;99.90
28171;DHT22;15458;53.346;-1.688;2022-10-28T10:17:08;18.10;99.90
28171;DHT22;15458;53.346;-1.688;2022-10-28T10:22:31;18.20;99.90
28171;DHT22;15458;53.346;-1.688;2022-10-28T10:24:57;18.10;99.90
28171;DHT22;15458;53.346;-1.688;2022-10-28T10:27:24;17.90;99.90
28171;DHT22;15458;53.346;-1.688;2022-10-28T10:29:51;17.80;99.90
28171;DHT22;15458;53.346;-1.688;2022-10-28T10:35:03;17.80;99.90
28171;DHT22;15458;53.346;-1.688;2022-10-28T10:37:33;17.80;99.10
28171;DHT22;15458;53.346;-1.688;2022-10-28T10:40:04;17.60;99.20
28171;DHT22;15458;53.346;-1.688;2022-10-28T10:42:32;17.60;99.90
28171;DHT22;15458;53.346;-1.688;2022-10-28T10:45:10;17.70;99.90
28171;DHT22;15458;53.346;-1.688;2022-10-28T10:47:40;17.80;99.90
28171;DHT22;15458;53.346;-1.688;2022-10-28T10:50:35;18.00;99.90
28171;DHT22;15458;53.346;-1.688;2022-10-28T10:53:04;18.00;98.40
28171;DHT22;15458;53.346;-1.688;2022-10-28T10:55:38;17.90;96.90
28171;DHT22;15458;53.346;-1.688;2022-10-28T10:58:13;17.90;97.00
28171;DHT22;15458;53.346;-1.688;2022-10-28T11:00:47;17.80;96.30
28171;DHT22;15458;53.346;-1.688;2022-10-28T11:03:36;17.80;95.60
28171;DHT22;15458;53.346;-1.688;2022-10-28T11:06:05;17.90;95.40
28171;DHT22;15458;53.346;-1.688;2022-10-28T11:08:38;18.10;95.20
28171;DHT22;15458;53.346;-1.688;2022-10-28T11:14:19;18.40;94.30
28171;DHT22;15458;53.346;-1.688;2022-10-28T11:16:50;18.50;93.70
28171;DHT22;15458;53.346;-1.688;2022-10-28T11:19:34;18.60;93.20
28171;DHT22;15458;53.346;-1.688;2022-10-28T11:30:23;19.50;91.50
28171;DHT22;15458;53.346;-1.688;2022-10-28T11:33:11;19.70;91.40
28171;DHT22;15458;53.346;-1.688;2022-10-28T11:43:58;20.30;83.60
28171;DHT22;15458;53.346;-1.688;2022-10-28T11:46:43;20.40;82.50
28171;DHT22;15458;53.346;-1.688;2022-10-28T12:17:16;20.00;77.60
28171;DHT22;15458;53.346;-1.688;2022-10-28T12:19:55;20.00;77.70
28171;DHT22;15458;53.346;-1.688;2022-10-28T12:22:27;19.90;77.20
28171;DHT22;15458;53.346;-1.688;2022-10-28T12:24:56;19.80;77.40
28171;DHT22;15458;53.346;-1.688;2022-10-28T12:27:33;19.60;77.60
28171;DHT22;15458;53.346;-1.688;2022-10-28T12:30:12;19.50;77.90
28171;DHT22;15458;53.346;-1.688;2022-10-28T12:32:42;19.30;78.60
28171;DHT22;15458;53.346;-1.688;2022-10-28T12:35:16;19.00;79.10
28171;DHT22;15458;53.346;-1.688;2022-10-28T12:40:24;18.60;80.30
28171;DHT22;15458;53.346;-1.688;2022-10-28T12:43:08;18.60;81.70
28171;DHT22;15458;53.346;-1.688;2022-10-28T12:45:39;18.70;82.30
28171;DHT22;15458;53.346;-1.688;2022-10-28T12:48:34;19.00;82.50
28171;DHT22;15458;53.346;-1.688;2022-10-28T12:51:30;19.60;82.50
28171;DHT22;15458;53.346;-1.688;2022-10-28T12:54:29;20.30;80.30
28171;DHT22;15458;53.346;-1.688;2022-10-28T12:57:09;20.70;78.80
28171;DHT22;15458;53.346;-1.688;2022-10-28T13:00:05;20.90;77.40
28171;DHT22;15458;53.346;-1.688;2022-10-28T13:03:03;20.90;76.30
28171;DHT22;15458;53.346;-1.688;2022-10-28T13:20:05;22.20;72.00
28171;DHT22;15458;53.346;-1.688;2022-10-28T13:28:04;21.40;71.50
28171;DHT22;15458;53.346;-1.688;2022-10-28T13:30:30;21.00;72.70
28171;DHT22;15458;53.346;-1.688;2022-10-28T13:33:15;20.60;73.70
28171;DHT22;15458;53.346;-1.688;2022-10-28T13:35:42;20.20;74.60
28171;DHT22;15458;53.346;-1.688;2022-10-28T13:38:10;20.00;75.60
28171;DHT22;15458;53.346;-1.688;2022-10-28T13:43:02;19.70;76.60
28171;DHT22;15458;53.346;-1.688;2022-10-28T13:45:51;19.60;77.10
28171;DHT22;15458;53.346;-1.688;2022-10-28T13:58:59;18.90;78.40
28171;DHT22;15458;53.346;-1.688;2022-10-28T14:02:13;18.80;78.80
28171;DHT22;15458;53.346;-1.688;2022-10-28T14:04:53;19.00;79.00
28171;DHT22;15458;53.346;-1.688;2022-10-28T14:07:25;19.10;78.50
28171;DHT22;15458;53.346;-1.688;2022-10-28T14:10:10;19.20;77.90
28171;DHT22;15458;53.346;-1.688;2022-10-28T14:13:13;19.40;77.70
28171;DHT22;15458;53.346;-1.688;2022-10-28T14:15:37;19.40;76.70
28171;DHT22;15458;53.346;-1.688;2022-10-28T14:18:19;19.50;77.00
28171;DHT22;15458;53.346;-1.688;2022-10-28T14:36:14;18.10;78.70
28171;DHT22;15458;53.346;-1.688;2022-10-28T14:47:25;17.10;81.80
28171;DHT22;15458;53.346;-1.688;2022-10-28T14:50:02;16.90;82.70
28171;DHT22;15458;53.346;-1.688;2022-10-28T14:52:33;16.80;83.60
28171;DHT22;15458;53.346;-1.688;2022-10-28T14:55:02;16.70;83.90
28171;DHT22;15458;53.346;-1.688;2022-10-28T14:57:32;16.60;84.50
28171;DHT22;15458;53.346;-1.688;2022-10-28T15:00:07;16.50;85.30
28171;DHT22;15458;53.346;-1.688;2022-10-28T15:02:34;16.50;85.90
28171;DHT22;15458;53.346;-1.688;2022-10-28T15:05:19;16.50;86.20
28171;DHT22;15458;53.346;-1.688;2022-10-28T15:07:45;16.40;86.80
28171;DHT22;15458;53.346;-1.688;2022-10-28T15:10:25;16.40;87.40
28171;DHT22;15458;53.346;-1.688;2022-10-28T15:12:54;16.30;87.60
28171;DHT22;15458;53.346;-1.688;2022-10-28T15:15:20;16.40;88.00
28171;DHT22;15458;53.346;-1.688;2022-10-28T15:17:47;16.50;88.30
28171;DHT22;15458;53.346;-1.688;2022-10-28T15:20:31;16.60;88.40
28171;DHT22;15458;53.346;-1.688;2022-10-28T15:23:12;16.70;89.00
28171;DHT22;15458;53.346;-1.688;2022-10-28T15:25:39;16.70;89.20
28171;DHT22;15458;53.346;-1.688;2022-10-28T15:28:07;16.60;89.30
28171;DHT22;15458;53.346;-1.688;2022-10-28T15:30:37;16.50;89.50
28171;DHT22;15458;53.346;-1.688;2022-10-28T15:33:30;16.50;90.10
28171;DHT22;15458;53.346;-1.688;2022-10-28T15:36:12;16.40;90.40
28171;DHT22;15458;53.346;-1.688;2022-10-28T15:38:40;16.30;90.60
28171;DHT22;15458;53.346;-1.688;2022-10-28T15:44:01;16.20;91.20
28171;DHT22;15458;53.346;-1.688;2022-10-28T15:46:29;16.10;91.30
28171;DHT22;15458;53.346;-1.688;2022-10-28T15:48:57;16.00;91.50
28171;DHT22;15458;53.346;-1.688;2022-10-28T15:51:23;16.00;91.90
28171;DHT22;15458;53.346;-1.688;2022-10-28T15:53:51;15.90;92.00
28171;DHT22;15458;53.346;-1.688;2022-10-28T15:56:31;15.90;92.20
28171;DHT22;15458;53.346;-1.688;2022-10-28T15:59:22;15.80;92.40
28171;DHT22;15458;53.346;-1.688;2022-10-28T16:01:48;15.80;93.10
28171;DHT22;15458;53.346;-1.688;2022-10-28T16:06:43;15.70;93.20
28171;DHT22;15458;53.346;-1.688;2022-10-28T16:09:31;15.60;93.40
28171;DHT22;15458;53.346;-1.688;2022-10-28T16:12:02;15.50;93.80
28171;DHT22;15458;53.346;-1.688;2022-10-28T16:14:35;15.40;94.10
28171;DHT22;15458;53.346;-1.688;2022-10-28T16:17:22;15.30;94.50
28171;DHT22;15458;53.346;-1.688;2022-10-28T16:22:34;15.10;95.40
28171;DHT22;15458;53.346;-1.688;2022-10-28T16:25:04;15.00;95.80
28171;DHT22;15458;53.346;-1.688;2022-10-28T16:27:31;15.00;96.20
28171;DHT22;15458;53.346;-1.688;2022-10-28T16:29:57;14.90;96.60
28171;DHT22;15458;53.346;-1.688;2022-10-28T16:32:28;14.80;96.90
28171;DHT22;15458;53.346;-1.688;2022-10-28T16:34:55;14.80;97.50
28171;DHT22;15458;53.346;-1.688;2022-10-28T16:39:50;14.60;98.10
28171;DHT22;15458;53.346;-1.688;2022-10-28T16:42:20;14.60;98.70
28171;DHT22;15458;53.346;-1.688;2022-10-28T16:44:46;14.50;98.80
28171;DHT22;15458;53.346;-1.688;2022-10-28T16:47:14;14.50;99.20
28171;DHT22;15458;53.346;-1.688;2022-10-28T16:49:40;14.50;99.70
28171;DHT22;15458;53.346;-1.688;2022-10-28T16:52:13;14.40;99.90
28171;DHT22;15458;53.346;-1.688;2022-10-28T16:54:39;14.40;99.90
28171;DHT22;15458;53.346;-1.688;2022-10-28T16:57:08;14.30;99.90
28171;DHT22;15458;53.346;-1.688;2022-10-28T16:59:33;14.20;99.90
28171;DHT22;15458;53.346;-1.688;2022-10-28T17:01:59;14.10;99.90
28171;DHT22;15458;53.346;-1.688;2022-10-28T17:04:25;14.10;99.90
28171;DHT22;15458;53.346;-1.688;2022-10-28T17:06:51;14.10;99.90
28171;DHT22;15458;53.346;-1.688;2022-10-28T17:09:16;14.00;99.90
28171;DHT22;15458;53.346;-1.688;2022-10-28T17:11:42;13.90;99.90
28171;DHT22;15458;53.346;-1.688;2022-10-28T17:14:08;13.90;99.90
28171;DHT22;15458;53.346;-1.688;2022-10-28T17:16:33;13.80;99.90
28171;DHT22;15458;53.346;-1.688;2022-10-28T17:19:00;13.80;99.90
28171;DHT22;15458;53.346;-1.688;2022-10-28T17:21:26;13.80;99.90
28171;DHT22;15458;53.346;-1.688;2022-10-28T17:23:52;13.70;99.90
28171;DHT22;15458;53.346;-1.688;2022-10-28T17:26:17;13.70;99.90
28171;DHT22;15458;53.346;-1.688;2022-10-28T17:28:43;13.60;99.90
28171;DHT22;15458;53.346;-1.688;2022-10-28T17:31:09;13.60;99.90
28171;DHT22;15458;53.346;-1.688;2022-10-28T17:33:35;13.60;99.90
28171;DHT22;15458;53.346;-1.688;2022-10-28T17:36:05;13.50;99.90
28171;DHT22;15458;53.346;-1.688;2022-10-28T17:38:32;13.50;99.90
28171;DHT22;15458;53.346;-1.688;2022-10-28T17:40:57;13.40;99.90
28171;DHT22;15458;53.346;-1.688;2022-10-28T17:43:23;13.40;99.90
28171;DHT22;15458;53.346;-1.688;2022-10-28T17:45:49;13.40;99.90
28171;DHT22;15458;53.346;-1.688;2022-10-28T17:48:17;13.40;99.90
28171;DHT22;15458;53.346;-1.688;2022-10-28T17:50:42;13.40;99.90
28171;DHT22;15458;53.346;-1.688;2022-10-28T17:53:10;13.40;99.90
28171;DHT22;15458;53.346;-1.688;2022-10-28T17:55:36;13.40;99.90
28171;DHT22;15458;53.346;-1.688;2022-10-28T17:58:01;13.30;99.90
28171;DHT22;15458;53.346;-1.688;2022-10-28T18:00:27;13.30;99.90
28171;DHT22;15458;53.346;-1.688;2022-10-28T18:02:56;13.20;99.90
28171;DHT22;15458;53.346;-1.688;2022-10-28T18:05:22;13.20;99.90
28171;DHT22;15458;53.346;-1.688;2022-10-28T18:07:48;13.20;99.90
28171;DHT22;15458;53.346;-1.688;2022-10-28T18:10:13;13.20;99.90
28171;DHT22;15458;53.346;-1.688;2022-10-28T18:12:42;13.10;99.90
28171;DHT22;15458;53.346;-1.688;2022-10-28T18:15:08;13.10;99.90
28171;DHT22;15458;53.346;-1.688;2022-10-28T18:17:34;13.10;99.90
28171;DHT22;15458;53.346;-1.688;2022-10-28T18:19:59;13.10;99.90
28171;DHT22;15458;53.346;-1.688;2022-10-28T18:22:26;13.10;99.90
28171;DHT22;15458;53.346;-1.688;2022-10-28T18:24:52;13.00;99.90
28171;DHT22;15458;53.346;-1.688;2022-10-28T18:27:18;13.00;99.90
28171;DHT22;15458;53.346;-1.688;2022-10-28T18:29:44;13.00;99.90
28171;DHT22;15458;53.346;-1.688;2022-10-28T18:32:09;13.00;99.90
28171;DHT22;15458;53.346;-1.688;2022-10-28T18:34:36;13.00;99.90
28171;DHT22;15458;53.346;-1.688;2022-10-28T18:37:02;13.00;99.90
28171;DHT22;15458;53.346;-1.688;2022-10-28T18:39:32;12.90;99.90